Lastrup, Minnesota
Current Conditions -  °F | °C
As of 10:57 PM on Friday 24 Oct 2014 (Local Time) from KLXL Reporting Station
Clear Clear  
Wind Chill: 59°   Ceiling: Unl
Heat Index: 59°   Visibility: 10mi
Dew Point: 37°   Wind: 5mph
Humidity: 45%   Direction: 290°WNW
Pressure: 29.88"   Gusts: NA
Location:  46.04°N, 94.06°W
Report Text: KLXL 250357Z AUTO 29004KT 10SM CLR 15/03 A2988 RMK AO2
Loading
Personal Weather Stations






























Interactive Weather Map
Tropical Storm Tracking
New forecast layout! Learn more

10-Day Weather Forecast

Advertisements
Track Severe Weather on mobile